createdAt,value
2022-10-06T00:00:28.047Z,23.66
2022-10-06T00:01:28.095Z,23.61
2022-10-06T00:02:28.113Z,23.66
2022-10-06T00:03:28.019Z,23.63
2022-10-06T00:04:28.188Z,23.60
2022-10-06T00:05:27.987Z,23.61
2022-10-06T00:06:28.022Z,23.61
2022-10-06T00:07:27.984Z,23.61
2022-10-06T00:08:28.168Z,23.61
2022-10-06T00:09:28.093Z,23.61
2022-10-06T00:10:28.001Z,23.63
2022-10-06T00:11:27.913Z,23.61
2022-10-06T00:12:27.897Z,23.60
2022-10-06T00:13:27.877Z,23.60
2022-10-06T00:14:27.873Z,23.58
2022-10-06T00:15:28.659Z,23.61
2022-10-06T00:16:27.874Z,23.61
2022-10-06T00:17:27.870Z,23.60
2022-10-06T00:18:28.096Z,23.60
2022-10-06T00:19:27.796Z,23.61
2022-10-06T00:20:27.777Z,23.58
2022-10-06T00:21:27.869Z,23.57
2022-10-06T00:22:27.770Z,23.58
2022-10-06T00:23:27.743Z,23.58
2022-10-06T00:24:27.722Z,23.58
2022-10-06T00:25:27.720Z,23.57
2022-10-06T00:26:27.708Z,23.57
2022-10-06T00:27:27.888Z,23.58
2022-10-06T00:28:28.280Z,23.57
2022-10-06T00:29:27.748Z,23.55
2022-10-06T00:30:27.655Z,23.60
2022-10-06T00:31:27.658Z,23.58
2022-10-06T00:32:27.612Z,23.55
2022-10-06T00:33:27.764Z,23.55
2022-10-06T00:34:27.645Z,23.55
2022-10-06T00:35:27.655Z,23.55
2022-10-06T00:36:27.575Z,23.55
2022-10-06T00:37:27.551Z,23.55
2022-10-06T00:38:27.877Z,23.54
2022-10-06T00:39:27.724Z,23.55
2022-10-06T00:40:27.564Z,23.55
2022-10-06T00:41:27.495Z,23.57
2022-10-06T00:42:27.478Z,23.54
2022-10-06T00:43:27.476Z,23.54
2022-10-06T00:44:27.455Z,23.53
2022-10-06T00:45:27.598Z,23.55
2022-10-06T00:46:27.534Z,23.53
2022-10-06T00:47:27.413Z,23.54
2022-10-06T00:48:27.705Z,23.53
2022-10-06T00:49:27.393Z,23.57
2022-10-06T00:50:27.376Z,23.55
2022-10-06T00:51:27.458Z,23.54
2022-10-06T00:52:27.371Z,23.54
2022-10-06T00:53:27.323Z,23.51
2022-10-06T00:54:27.334Z,23.53
2022-10-06T00:55:27.296Z,23.51
2022-10-06T00:56:27.291Z,23.51
2022-10-06T00:57:27.420Z,23.51
2022-10-06T00:58:27.684Z,23.54
2022-10-06T00:59:27.244Z,23.54
2022-10-06T01:00:27.315Z,23.51
2022-10-06T01:01:27.235Z,23.51
2022-10-06T01:02:27.286Z,23.51
2022-10-06T01:03:27.407Z,23.54
2022-10-06T01:04:27.206Z,23.51
2022-10-06T01:05:27.169Z,23.51
2022-10-06T01:06:27.186Z,23.53
2022-10-06T01:07:27.142Z,23.50
2022-10-06T01:08:27.621Z,23.51
2022-10-06T01:09:27.254Z,23.50
2022-10-06T01:10:27.135Z,23.50
2022-10-06T01:11:27.082Z,23.50
2022-10-06T01:12:27.084Z,23.50
2022-10-06T01:13:27.082Z,23.50
2022-10-06T01:14:27.036Z,23.51
2022-10-06T01:15:27.125Z,23.48
2022-10-06T01:16:27.126Z,23.48
2022-10-06T01:17:27.001Z,23.47
2022-10-06T01:18:27.422Z,23.48
2022-10-06T01:19:26.955Z,23.48
2022-10-06T01:20:26.995Z,23.47
2022-10-06T01:21:27.075Z,23.51
2022-10-06T01:22:26.973Z,23.46
2022-10-06T01:23:26.930Z,23.47
2022-10-06T01:24:26.903Z,23.43
2022-10-06T01:25:26.881Z,23.46
2022-10-06T01:26:26.888Z,23.47
2022-10-06T01:27:27.016Z,23.47
2022-10-06T01:28:27.631Z,23.47
2022-10-06T01:29:26.882Z,23.47
2022-10-06T01:30:26.824Z,23.47
2022-10-06T01:31:26.863Z,23.43
2022-10-06T01:32:26.800Z,23.43
2022-10-06T01:33:26.931Z,23.43
2022-10-06T01:34:26.790Z,23.43
2022-10-06T01:35:26.765Z,23.46
2022-10-06T01:36:26.773Z,23.46
2022-10-06T01:37:26.729Z,23.43
2022-10-06T01:38:27.336Z,23.43
2022-10-06T01:39:26.871Z,23.43
2022-10-06T01:40:26.864Z,23.43
2022-10-06T01:41:26.677Z,23.42
2022-10-06T01:42:26.695Z,23.42
2022-10-06T01:43:26.652Z,23.46
2022-10-06T01:44:26.665Z,23.43
2022-10-06T01:45:26.802Z,23.42
2022-10-06T01:46:26.707Z,23.42
2022-10-06T01:47:26.617Z,23.40
2022-10-06T01:48:27.140Z,23.43
2022-10-06T01:49:26.631Z,23.39
2022-10-06T01:50:26.608Z,23.43
2022-10-06T01:51:26.648Z,23.39
2022-10-06T01:52:26.574Z,23.42
2022-10-06T01:53:26.513Z,23.40
2022-10-06T01:54:26.499Z,23.39
2022-10-06T01:55:26.475Z,23.42
2022-10-06T01:56:26.464Z,23.39
2022-10-06T01:57:26.679Z,23.40
2022-10-06T01:58:26.857Z,23.39
2022-10-06T01:59:26.468Z,23.39
2022-10-06T02:00:26.415Z,23.39
2022-10-06T02:01:26.444Z,23.39
2022-10-06T02:02:26.405Z,23.40
2022-10-06T02:03:26.530Z,23.40
2022-10-06T02:04:26.477Z,23.39
2022-10-06T02:05:26.337Z,23.36
2022-10-06T02:06:26.413Z,23.39
2022-10-06T02:07:26.320Z,23.39
2022-10-06T02:08:26.673Z,23.39
2022-10-06T02:09:26.451Z,23.36
2022-10-06T02:10:26.288Z,23.39
2022-10-06T02:11:26.258Z,23.40
2022-10-06T02:12:26.563Z,23.38
2022-10-06T02:13:26.248Z,23.39
2022-10-06T02:14:26.211Z,23.40
2022-10-06T02:15:26.465Z,23.38
2022-10-06T02:16:26.309Z,23.39
2022-10-06T02:17:26.189Z,23.38
2022-10-06T02:18:27.527Z,23.38
2022-10-06T02:19:26.178Z,23.38
2022-10-06T02:20:26.134Z,23.36
2022-10-06T02:21:26.366Z,23.38
2022-10-06T02:22:26.136Z,23.38
2022-10-06T02:23:26.100Z,23.38
2022-10-06T02:24:26.074Z,23.35
2022-10-06T02:25:26.085Z,23.39
2022-10-06T02:26:26.060Z,23.39
2022-10-06T02:27:26.124Z,23.36
2022-10-06T02:28:26.547Z,23.36
2022-10-06T02:29:26.012Z,23.38
2022-10-06T02:30:26.018Z,23.38
2022-10-06T02:31:26.084Z,23.36
2022-10-06T02:32:25.963Z,23.38
2022-10-06T02:33:26.048Z,23.35
2022-10-06T02:34:25.972Z,23.35
2022-10-06T02:35:25.933Z,23.35
2022-10-06T02:36:25.919Z,23.36
2022-10-06T02:37:25.908Z,23.35
2022-10-06T02:38:26.241Z,23.35
2022-10-06T02:39:26.146Z,23.39
2022-10-06T02:40:25.893Z,23.33
2022-10-06T02:41:25.841Z,23.36
2022-10-06T02:42:25.830Z,23.33
2022-10-06T02:43:25.831Z,23.32
2022-10-06T02:44:25.811Z,23.36
2022-10-06T02:45:25.894Z,23.36
2022-10-06T02:46:26.016Z,23.35
2022-10-06T02:47:25.773Z,23.36
2022-10-06T02:48:26.162Z,23.33
2022-10-06T02:49:25.740Z,23.36
2022-10-06T02:50:25.729Z,23.33
2022-10-06T02:51:25.856Z,23.35
2022-10-06T02:52:25.711Z,23.36
2022-10-06T02:53:25.691Z,23.35
2022-10-06T02:54:25.688Z,23.32
2022-10-06T02:55:25.646Z,23.33
2022-10-06T02:56:25.651Z,23.33
2022-10-06T02:57:25.862Z,23.32
2022-10-06T02:58:26.139Z,23.35
2022-10-06T02:59:25.676Z,23.33
2022-10-06T03:00:26.374Z,23.33
2022-10-06T03:01:25.658Z,23.31
2022-10-06T03:02:25.683Z,23.33
2022-10-06T03:03:25.716Z,23.32
2022-10-06T03:04:25.602Z,23.33
2022-10-06T03:05:25.955Z,23.32
2022-10-06T03:06:25.514Z,23.33
2022-10-06T03:07:25.491Z,23.28
2022-10-06T03:08:25.733Z,23.32
2022-10-06T03:09:25.713Z,23.32
2022-10-06T03:10:25.512Z,23.33
2022-10-06T03:11:25.450Z,23.31
2022-10-06T03:12:25.437Z,23.31
2022-10-06T03:13:25.421Z,23.31
2022-10-06T03:14:26.087Z,23.28
2022-10-06T03:15:25.733Z,23.32
2022-10-06T03:16:25.489Z,23.28
2022-10-06T03:17:25.382Z,23.28
2022-10-06T03:18:25.719Z,23.28
2022-10-06T03:19:25.506Z,23.31
2022-10-06T03:20:25.482Z,23.31
2022-10-06T03:21:25.390Z,23.31
2022-10-06T03:22:25.314Z,23.31
2022-10-06T03:23:25.261Z,23.31
2022-10-06T03:24:25.384Z,23.28
2022-10-06T03:25:25.274Z,23.28
2022-10-06T03:26:25.219Z,23.31
2022-10-06T03:27:25.463Z,23.31
2022-10-06T03:28:25.523Z,23.32
2022-10-06T03:29:25.408Z,23.28
2022-10-06T03:30:25.188Z,23.28
2022-10-06T03:31:25.201Z,23.27
2022-10-06T03:32:25.155Z,23.27
2022-10-06T03:33:25.287Z,23.28
2022-10-06T03:34:25.263Z,23.28
2022-10-06T03:35:25.344Z,23.27
2022-10-06T03:36:25.129Z,23.27
2022-10-06T03:37:25.086Z,23.27
2022-10-06T03:38:25.416Z,23.27
2022-10-06T03:39:25.227Z,23.28
2022-10-06T03:40:25.083Z,23.27
2022-10-06T03:41:25.025Z,23.27
2022-10-06T03:42:25.010Z,23.27
2022-10-06T03:43:25.001Z,23.27
2022-10-06T03:44:24.982Z,23.25
2022-10-06T03:45:25.143Z,23.27
2022-10-06T03:46:25.379Z,23.27
2022-10-06T03:47:24.944Z,23.25
2022-10-06T03:48:24.942Z,23.23
2022-10-06T03:49:24.915Z,23.25
2022-10-06T03:50:24.899Z,23.23
2022-10-06T03:51:25.107Z,23.25
2022-10-06T03:52:26.113Z,23.23
2022-10-06T03:53:24.895Z,23.22
2022-10-06T03:54:24.865Z,23.22
2022-10-06T03:55:25.050Z,23.23
2022-10-06T03:56:24.847Z,23.22
2022-10-06T03:57:24.823Z,23.25
2022-10-06T03:58:24.830Z,23.20
2022-10-06T03:59:24.789Z,23.23
2022-10-06T04:00:24.767Z,23.20
2022-10-06T04:01:26.641Z,23.22
2022-10-06T04:02:24.778Z,23.20
2022-10-06T04:03:24.739Z,23.20
2022-10-06T04:04:24.760Z,23.20
2022-10-06T04:05:24.699Z,23.22
2022-10-06T04:06:24.957Z,23.19
2022-10-06T04:07:24.818Z,23.19
2022-10-06T04:08:24.645Z,23.20
2022-10-06T04:09:24.644Z,23.20
2022-10-06T04:10:24.859Z,23.20
2022-10-06T04:11:25.386Z,23.20
2022-10-06T04:12:24.605Z,23.19
2022-10-06T04:13:24.769Z,23.20
2022-10-06T04:14:24.576Z,23.20
2022-10-06T04:15:24.587Z,23.23
2022-10-06T04:16:24.659Z,23.17
2022-10-06T04:17:24.573Z,23.16
2022-10-06T04:18:24.553Z,23.17
2022-10-06T04:19:24.674Z,23.20
2022-10-06T04:20:24.485Z,23.16
2022-10-06T04:21:24.502Z,23.16
2022-10-06T04:22:24.535Z,23.17
2022-10-06T04:23:24.473Z,23.17
2022-10-06T04:24:24.490Z,23.19
2022-10-06T04:25:24.584Z,23.19
2022-10-06T04:26:24.470Z,23.17
2022-10-06T04:27:24.448Z,23.19
2022-10-06T04:28:24.494Z,23.16
2022-10-06T04:29:24.411Z,23.17
2022-10-06T04:30:24.355Z,23.16
2022-10-06T04:31:24.497Z,23.15
2022-10-06T04:32:24.330Z,23.15
2022-10-06T04:33:24.357Z,23.16
2022-10-06T04:34:24.332Z,23.15
2022-10-06T04:35:24.338Z,23.16
2022-10-06T04:36:24.347Z,23.16
2022-10-06T04:37:24.496Z,23.16
2022-10-06T04:38:24.340Z,23.16
2022-10-06T04:39:24.325Z,23.13
2022-10-06T04:40:24.302Z,23.13
2022-10-06T04:41:24.207Z,23.13
2022-10-06T04:42:24.210Z,23.12
2022-10-06T04:43:24.289Z,23.12
2022-10-06T04:44:24.159Z,23.10
2022-10-06T04:45:24.161Z,23.10
2022-10-06T04:46:42.106Z,23.12
2022-10-06T04:47:25.125Z,23.09
2022-10-06T04:48:24.167Z,23.09
2022-10-06T04:49:24.470Z,23.07
2022-10-06T04:50:24.152Z,23.10
2022-10-06T04:51:24.856Z,23.07
2022-10-06T04:52:24.127Z,23.07
2022-10-06T04:53:24.052Z,23.09
2022-10-06T04:54:24.020Z,23.07
2022-10-06T04:55:24.183Z,23.05
2022-10-06T04:56:24.016Z,23.05
2022-10-06T04:57:23.989Z,23.05
2022-10-06T04:58:24.165Z,23.04
2022-10-06T04:59:23.968Z,23.04
2022-10-06T05:00:23.943Z,23.04
2022-10-06T05:01:24.104Z,23.04
2022-10-06T05:02:23.987Z,23.02
2022-10-06T05:03:23.907Z,23.02
2022-10-06T05:04:23.935Z,23.04
2022-10-06T05:05:23.890Z,23.02
2022-10-06T05:06:23.901Z,23.02
2022-10-06T05:07:23.965Z,23.04
2022-10-06T05:08:23.828Z,23.02
2022-10-06T05:09:23.830Z,23.05
2022-10-06T05:10:23.855Z,23.04
2022-10-06T05:11:25.968Z,23.04
2022-10-06T05:12:23.816Z,23.04
2022-10-06T05:13:23.868Z,23.02
2022-10-06T05:14:23.750Z,23.07
2022-10-06T05:15:23.867Z,23.05
2022-10-06T05:16:23.826Z,23.01
2022-10-06T05:17:23.749Z,23.02
2022-10-06T05:18:23.692Z,23.05
2022-10-06T05:19:23.789Z,23.02
2022-10-06T05:20:23.688Z,23.02
2022-10-06T05:21:23.675Z,23.04
2022-10-06T05:22:23.669Z,23.02
2022-10-06T05:23:23.637Z,23.02
2022-10-06T05:24:23.628Z,23.04
2022-10-06T05:25:23.822Z,23.05
2022-10-06T05:26:23.590Z,23.04
2022-10-06T05:27:23.586Z,23.04
2022-10-06T05:28:25.372Z,23.02
2022-10-06T05:29:23.554Z,23.02
2022-10-06T05:30:23.530Z,23.04
2022-10-06T05:31:23.800Z,23.02
2022-10-06T05:32:23.503Z,23.04
2022-10-06T05:33:23.493Z,23.04
2022-10-06T05:34:23.723Z,23.02
2022-10-06T05:35:23.480Z,23.04
2022-10-06T05:36:23.455Z,23.04
2022-10-06T05:37:23.533Z,23.05
2022-10-06T05:38:23.422Z,23.04
2022-10-06T05:39:23.411Z,23.02
2022-10-06T05:40:23.450Z,23.04
2022-10-06T05:41:23.401Z,23.02
2022-10-06T05:42:27.500Z,23.04
2022-10-06T05:43:25.126Z,23.04
2022-10-06T05:44:23.342Z,23.02
2022-10-06T05:45:23.381Z,23.02
2022-10-06T05:46:23.388Z,23.02
2022-10-06T05:47:23.313Z,23.02
2022-10-06T05:48:23.284Z,23.05
2022-10-06T05:49:23.434Z,23.01
2022-10-06T05:50:23.252Z,23.00
2022-10-06T05:51:27.933Z,23.00
2022-10-06T05:52:24.312Z,23.02
2022-10-06T05:53:23.227Z,23.04
2022-10-06T05:54:23.198Z,23.01
2022-10-06T05:55:23.374Z,23.02
2022-10-06T05:56:23.176Z,23.02
2022-10-06T05:57:23.156Z,23.01
2022-10-06T05:58:23.231Z,23.01
2022-10-06T05:59:23.135Z,23.04
2022-10-06T06:00:23.124Z,23.01
2022-10-06T06:01:23.235Z,23.01
2022-10-06T06:02:23.147Z,23.02
2022-10-06T06:03:23.158Z,23.01
2022-10-06T06:04:23.141Z,23.00
2022-10-06T06:05:23.066Z,23.02
2022-10-06T06:06:23.071Z,23.01
2022-10-06T06:07:23.194Z,23.02
2022-10-06T06:08:23.034Z,23.01
2022-10-06T06:09:23.000Z,23.01
2022-10-06T06:10:23.068Z,23.02
2022-10-06T06:11:23.063Z,23.00
2022-10-06T06:12:22.974Z,23.01
2022-10-06T06:13:23.096Z,23.01
2022-10-06T06:14:22.917Z,23.01
2022-10-06T06:15:22.957Z,23.02
2022-10-06T06:16:22.970Z,23.02
2022-10-06T06:17:22.912Z,23.00
2022-10-06T06:18:22.882Z,23.02
2022-10-06T06:19:25.960Z,23.02
2022-10-06T06:20:24.803Z,23.02
2022-10-06T06:21:22.842Z,23.04
2022-10-06T06:22:22.915Z,23.02
2022-10-06T06:23:22.806Z,23.02
2022-10-06T06:24:22.796Z,23.02
2022-10-06T06:25:23.096Z,23.04
2022-10-06T06:26:22.811Z,23.05
2022-10-06T06:27:22.776Z,23.04
2022-10-06T06:28:22.841Z,23.04
2022-10-06T06:29:22.731Z,23.05
2022-10-06T06:30:22.733Z,23.05
2022-10-06T06:31:22.911Z,23.05
2022-10-06T06:32:22.684Z,23.07
2022-10-06T06:33:22.677Z,23.09
2022-10-06T06:34:22.705Z,23.05
2022-10-06T06:35:22.678Z,23.07
2022-10-06T06:36:22.666Z,23.09
2022-10-06T06:37:22.774Z,23.10
2022-10-06T06:38:22.601Z,23.09
2022-10-06T06:39:22.594Z,23.12
2022-10-06T06:40:22.648Z,23.13
2022-10-06T06:41:22.563Z,23.12
2022-10-06T06:42:22.643Z,23.12
2022-10-06T06:43:23.205Z,23.15
2022-10-06T06:44:22.522Z,23.13
2022-10-06T06:45:23.075Z,23.15
2022-10-06T06:46:22.700Z,23.13
2022-10-06T06:47:24.438Z,23.17
2022-10-06T06:48:22.500Z,23.19
2022-10-06T06:49:22.665Z,23.17
2022-10-06T06:50:22.447Z,23.16
2022-10-06T06:51:22.516Z,23.19
2022-10-06T06:52:22.473Z,23.19
2022-10-06T06:53:22.406Z,23.19
2022-10-06T06:54:22.416Z,23.20
2022-10-06T06:55:22.519Z,23.20
2022-10-06T06:56:22.370Z,23.22
2022-10-06T06:57:22.351Z,23.23
2022-10-06T06:58:22.348Z,23.22
2022-10-06T06:59:22.332Z,23.22
2022-10-06T07:00:22.338Z,23.23
2022-10-06T07:01:22.413Z,23.23
2022-10-06T07:02:22.316Z,23.27
2022-10-06T07:03:45.278Z,23.25
2022-10-06T07:04:23.429Z,23.27
2022-10-06T07:05:22.245Z,23.27
2022-10-06T07:06:27.141Z,23.31
2022-10-06T07:07:23.284Z,23.32
2022-10-06T07:08:22.198Z,23.28
2022-10-06T07:09:22.183Z,23.28
2022-10-06T07:10:22.207Z,23.28
2022-10-06T07:11:22.187Z,23.32
2022-10-06T07:12:22.146Z,23.28
2022-10-06T07:13:22.385Z,23.36
2022-10-06T07:14:22.116Z,23.35
2022-10-06T07:15:22.095Z,23.35
2022-10-06T07:16:22.123Z,23.36
2022-10-06T07:17:22.105Z,23.36
2022-10-06T07:18:22.062Z,23.35
2022-10-06T07:19:24.766Z,23.36
2022-10-06T07:20:22.041Z,23.36
2022-10-06T07:21:22.016Z,23.39
2022-10-06T07:22:22.034Z,23.42
2022-10-06T07:23:21.988Z,23.40
2022-10-06T07:24:22.004Z,23.42
2022-10-06T07:25:25.615Z,23.47
2022-10-06T07:26:21.961Z,23.43
2022-10-06T07:27:21.930Z,23.48
2022-10-06T07:28:22.012Z,23.47
2022-10-06T07:29:21.904Z,23.47
2022-10-06T07:30:21.940Z,23.51
2022-10-06T07:31:21.991Z,23.50
2022-10-06T07:32:21.899Z,23.51
2022-10-06T07:33:21.852Z,23.48
2022-10-06T07:34:21.873Z,23.54
2022-10-06T07:35:21.824Z,23.53
2022-10-06T07:36:21.808Z,23.53
2022-10-06T07:37:21.887Z,23.53
2022-10-06T07:38:21.803Z,23.53
2022-10-06T07:39:21.761Z,23.53
2022-10-06T07:40:22.086Z,23.54
2022-10-06T07:41:21.736Z,23.51
2022-10-06T07:42:21.725Z,23.54
2022-10-06T07:43:21.809Z,23.53
2022-10-06T07:44:21.704Z,23.54
2022-10-06T07:45:21.695Z,23.54
2022-10-06T07:46:22.581Z,23.51
2022-10-06T07:47:21.657Z,23.54
2022-10-06T07:48:21.654Z,23.54
2022-10-06T07:49:21.723Z,23.53
2022-10-06T07:50:21.642Z,23.53
2022-10-06T07:51:21.628Z,23.51
2022-10-06T07:52:21.631Z,23.53
2022-10-06T07:53:21.574Z,23.53
2022-10-06T07:54:26.530Z,23.51
2022-10-06T07:55:22.727Z,23.53
2022-10-06T07:56:22.408Z,23.53
2022-10-06T07:57:21.559Z,23.51
2022-10-06T07:58:21.563Z,23.54
2022-10-06T07:59:24.252Z,23.53
2022-10-06T08:00:21.684Z,23.51
2022-10-06T08:01:21.706Z,23.51
2022-10-06T08:02:21.484Z,23.51
2022-10-06T08:03:21.546Z,23.55
2022-10-06T08:04:21.902Z,23.51
2022-10-06T08:05:21.449Z,23.54
2022-10-06T08:06:21.460Z,23.54
2022-10-06T08:07:21.630Z,23.53
2022-10-06T08:08:21.359Z,23.54
2022-10-06T08:09:21.367Z,23.54
2022-10-06T08:10:21.879Z,23.54
2022-10-06T08:11:21.568Z,23.54
2022-10-06T08:12:53.865Z,23.55
2022-10-06T08:13:54.062Z,23.53
2022-10-06T08:14:53.989Z,23.55
2022-10-06T08:15:54.022Z,23.54
2022-10-06T08:16:53.954Z,23.55
2022-10-06T08:17:54.135Z,23.58
2022-10-06T08:18:53.690Z,23.58
2022-10-06T08:19:53.966Z,23.58
2022-10-06T08:20:53.657Z,23.58
2022-10-06T08:21:53.683Z,23.57
2022-10-06T08:22:53.778Z,23.60
2022-10-06T08:23:53.718Z,23.61
2022-10-06T08:25:05.357Z,23.65
2022-10-06T08:25:54.734Z,23.65
2022-10-06T08:26:53.561Z,23.65
2022-10-06T08:27:53.790Z,23.65
2022-10-06T08:28:53.784Z,23.66
2022-10-06T08:29:53.766Z,23.69
2022-10-06T08:30:53.515Z,23.68
2022-10-06T08:31:53.716Z,23.69
2022-10-06T08:32:53.486Z,23.70
2022-10-06T08:33:53.627Z,23.70
2022-10-06T08:34:53.842Z,23.68
2022-10-06T08:35:55.416Z,23.70
2022-10-06T08:37:18.698Z,23.73
2022-10-06T08:37:54.866Z,23.72
2022-10-06T08:38:53.400Z,23.73
2022-10-06T08:39:54.292Z,23.75
2022-10-06T08:40:53.548Z,23.78
2022-10-06T08:41:53.410Z,23.80
2022-10-06T08:42:53.354Z,23.80
2022-10-06T08:43:53.447Z,23.85
2022-10-06T08:44:53.529Z,23.87
2022-10-06T08:46:53.356Z,23.91
2022-10-06T08:47:53.371Z,23.91
2022-10-06T08:48:53.257Z,23.94
2022-10-06T08:49:53.546Z,23.95
2022-10-06T08:50:54.071Z,24.02
2022-10-06T08:51:53.270Z,23.98
2022-10-06T08:52:53.350Z,24.02
2022-10-06T08:53:53.406Z,24.02
2022-10-06T08:54:53.190Z,24.05
2022-10-06T08:55:53.286Z,24.08
2022-10-06T08:56:53.140Z,24.06
2022-10-06T08:57:53.259Z,24.10
2022-10-06T08:58:53.220Z,24.12
2022-10-06T08:59:53.750Z,24.12
2022-10-06T09:00:53.211Z,24.15
2022-10-06T09:01:53.314Z,24.15
2022-10-06T09:02:53.060Z,24.20
2022-10-06T09:03:53.464Z,24.21
2022-10-06T09:04:53.174Z,24.22
2022-10-06T09:05:53.149Z,24.24
2022-10-06T09:06:53.005Z,24.24
2022-10-06T09:07:53.110Z,24.28
2022-10-06T09:08:52.989Z,24.27
2022-10-06T09:09:53.876Z,24.31
2022-10-06T09:10:53.374Z,24.34
2022-10-06T09:11:53.051Z,24.32
2022-10-06T09:12:52.920Z,24.37
2022-10-06T09:13:53.122Z,24.37
2022-10-06T09:14:53.381Z,24.42
2022-10-06T09:15:53.431Z,24.42
2022-10-06T09:16:52.955Z,24.42
2022-10-06T09:17:53.032Z,24.45
2022-10-06T09:19:09.306Z,24.46
2022-10-06T09:19:54.306Z,24.47
2022-10-06T09:20:52.817Z,24.49
2022-10-06T09:21:53.045Z,24.52
2022-10-06T09:22:52.947Z,24.52
2022-10-06T09:23:52.915Z,24.50
2022-10-06T09:24:52.832Z,24.55
2022-10-06T09:25:52.899Z,24.57
2022-10-06T09:26:52.736Z,24.57
2022-10-06T09:27:53.016Z,24.58
2022-10-06T09:28:53.253Z,24.60
2022-10-06T09:29:53.118Z,24.62
2022-10-06T09:30:55.390Z,24.65
2022-10-06T09:31:53.054Z,24.64
2022-10-06T09:32:52.646Z,24.69
2022-10-06T09:33:52.814Z,24.73
2022-10-06T09:34:52.706Z,24.69
2022-10-06T09:35:52.763Z,24.73
2022-10-06T09:36:52.595Z,24.77
2022-10-06T09:37:52.849Z,24.77
2022-10-06T09:38:52.560Z,24.80
2022-10-06T09:39:52.741Z,24.78
2022-10-06T09:40:52.612Z,24.83
2022-10-06T09:41:52.706Z,24.84
2022-10-06T09:42:52.515Z,24.83
2022-10-06T09:43:52.546Z,24.84
2022-10-06T09:44:52.499Z,24.85
2022-10-06T09:45:52.563Z,24.88
2022-10-06T09:46:52.598Z,24.90
2022-10-06T09:47:52.606Z,24.91
2022-10-06T09:48:52.448Z,24.90
2022-10-06T09:49:52.636Z,24.90
2022-10-06T09:50:52.428Z,24.93
2022-10-06T09:51:52.880Z,24.93
2022-10-06T09:52:52.498Z,24.93
2022-10-06T09:53:52.435Z,24.96
2022-10-06T09:54:52.339Z,24.98
2022-10-06T09:55:52.524Z,24.98
2022-10-06T09:56:52.317Z,24.99
2022-10-06T09:57:52.486Z,25.00
2022-10-06T09:58:52.368Z,25.00
2022-10-06T09:59:52.529Z,25.00
2022-10-06T10:00:52.293Z,25.02
2022-10-06T10:01:52.362Z,25.05
2022-10-06T10:02:52.305Z,25.03
2022-10-06T10:04:53.366Z,25.08
2022-10-06T10:05:52.472Z,25.06
2022-10-06T10:06:52.166Z,25.09
2022-10-06T10:07:52.379Z,25.09
2022-10-06T10:08:52.144Z,25.09
2022-10-06T10:09:52.289Z,25.10
2022-10-06T10:10:52.198Z,25.13
2022-10-06T10:11:52.367Z,25.14
2022-10-06T10:12:52.090Z,25.14
2022-10-06T10:13:52.211Z,25.14
2022-10-06T10:14:52.053Z,25.15
2022-10-06T10:15:52.313Z,25.15
2022-10-06T10:16:53.352Z,25.20
2022-10-06T10:17:52.190Z,25.15
2022-10-06T10:18:51.991Z,25.15
2022-10-06T10:19:52.016Z,25.17
2022-10-06T10:20:52.005Z,25.18
2022-10-06T10:21:52.474Z,25.17
2022-10-06T10:22:52.168Z,25.20
2022-10-06T10:23:52.086Z,25.21
2022-10-06T10:24:51.920Z,25.20
2022-10-06T10:25:52.270Z,25.23
2022-10-06T10:26:52.242Z,25.21
2022-10-06T10:27:52.448Z,25.24
2022-10-06T10:28:51.860Z,25.23
2022-10-06T10:29:51.992Z,25.24
2022-10-06T10:30:52.340Z,25.23
2022-10-06T10:31:52.033Z,25.24
2022-10-06T10:32:52.119Z,25.24
2022-10-06T10:34:05.086Z,25.23
2022-10-06T10:34:52.777Z,25.27
2022-10-06T10:35:52.096Z,25.28
2022-10-06T10:36:51.762Z,25.25
2022-10-06T10:37:51.944Z,25.28
2022-10-06T10:38:51.818Z,25.25
2022-10-06T10:39:51.839Z,25.27
2022-10-06T10:40:51.704Z,25.30
2022-10-06T10:41:52.083Z,25.30
2022-10-06T10:42:51.667Z,25.30
2022-10-06T10:43:51.899Z,25.33
2022-10-06T10:44:51.907Z,25.30
2022-10-06T10:45:51.871Z,25.32
2022-10-06T10:46:51.666Z,25.32
2022-10-06T10:47:51.702Z,25.35
2022-10-06T10:48:51.575Z,25.32
2022-10-06T10:49:51.962Z,25.35
2022-10-06T10:50:51.782Z,25.33
2022-10-06T10:51:52.354Z,25.33
2022-10-06T10:52:51.537Z,25.38
2022-10-06T10:53:51.529Z,25.39
2022-10-06T10:54:51.523Z,25.38
2022-10-06T10:55:55.519Z,25.39
2022-10-06T10:56:51.583Z,25.43
2022-10-06T10:57:51.694Z,25.43
2022-10-06T10:58:51.444Z,25.42
2022-10-06T10:59:51.598Z,25.45
2022-10-06T11:00:51.467Z,25.45
2022-10-06T11:01:51.579Z,25.50
2022-10-06T11:02:51.558Z,25.46
2022-10-06T11:03:51.516Z,25.50
2022-10-06T11:04:51.369Z,25.51
2022-10-06T11:05:51.507Z,25.50
2022-10-06T11:06:51.341Z,25.50
2022-10-06T11:07:51.418Z,25.52
2022-10-06T11:08:51.537Z,25.52
2022-10-06T11:09:51.418Z,25.54
2022-10-06T11:10:51.291Z,25.54
2022-10-06T11:11:52.441Z,25.54
2022-10-06T11:12:51.264Z,25.54
2022-10-06T11:13:51.422Z,25.55
2022-10-06T11:14:51.321Z,25.55
2022-10-06T11:15:51.638Z,25.54
2022-10-06T11:16:51.214Z,25.57
2022-10-06T11:17:51.479Z,25.58
2022-10-06T11:18:51.164Z,25.58
2022-10-06T11:19:51.241Z,25.60
2022-10-06T11:20:51.291Z,25.60
2022-10-06T11:21:51.385Z,25.58
2022-10-06T11:22:51.129Z,25.61
2022-10-06T11:23:51.340Z,25.62
2022-10-06T11:24:51.113Z,25.64
2022-10-06T11:25:51.271Z,25.64
2022-10-06T11:26:51.220Z,25.64
2022-10-06T11:27:51.391Z,25.65
2022-10-06T11:28:51.036Z,25.65
2022-10-06T11:29:51.249Z,25.70
2022-10-06T11:30:51.010Z,25.67
2022-10-06T11:31:51.352Z,25.65
2022-10-06T11:32:51.141Z,25.67
2022-10-06T11:33:51.154Z,25.69
2022-10-06T11:34:50.954Z,25.72
2022-10-06T11:35:51.047Z,25.69
2022-10-06T11:36:50.924Z,25.70
2022-10-06T11:37:51.045Z,25.70
2022-10-06T11:38:51.132Z,25.72
2022-10-06T11:39:51.040Z,25.70
2022-10-06T11:40:50.867Z,25.73
2022-10-06T11:41:51.890Z,25.73
2022-10-06T11:42:50.850Z,25.76
2022-10-06T11:43:51.042Z,25.76
2022-10-06T11:44:50.970Z,25.77
2022-10-06T11:45:52.005Z,25.79
2022-10-06T11:46:50.779Z,25.77
2022-10-06T11:47:50.921Z,25.76
2022-10-06T11:48:50.741Z,25.77
2022-10-06T11:49:51.027Z,25.80
2022-10-06T11:50:50.857Z,25.77
2022-10-06T11:51:51.597Z,25.79
2022-10-06T11:52:50.689Z,25.77
2022-10-06T11:53:50.789Z,25.77
2022-10-06T11:54:50.670Z,25.80
2022-10-06T11:55:50.776Z,25.80
2022-10-06T11:56:50.743Z,25.82
2022-10-06T11:57:51.294Z,25.79
2022-10-06T11:58:50.604Z,25.80
2022-10-06T11:59:50.837Z,25.83
2022-10-06T12:00:50.590Z,25.80
2022-10-06T12:01:51.033Z,25.82
2022-10-06T12:02:50.838Z,25.82
2022-10-06T12:03:50.720Z,25.82
2022-10-06T12:04:50.517Z,25.83
2022-10-06T12:05:56.629Z,25.82
2022-10-06T12:06:51.514Z,25.85
2022-10-06T12:07:50.772Z,25.85
2022-10-06T12:08:50.581Z,25.88
2022-10-06T12:09:52.765Z,25.87
2022-10-06T12:10:50.495Z,25.87
2022-10-06T12:11:50.541Z,25.87
2022-10-06T12:13:05.690Z,25.87
2022-10-06T12:15:01.958Z,25.88
2022-10-06T12:17:05.486Z,25.92
2022-10-06T12:17:12.818Z,25.91
2022-10-06T12:17:51.520Z,25.90
2022-10-06T12:18:50.352Z,25.91
2022-10-06T12:19:50.681Z,25.91
2022-10-06T12:20:50.329Z,25.92
2022-10-06T12:21:50.455Z,25.94
2022-10-06T12:22:50.281Z,25.91
2022-10-06T12:23:50.585Z,25.92
2022-10-06T12:24:50.257Z,25.92
2022-10-06T12:25:50.459Z,25.94
2022-10-06T12:26:50.289Z,25.94
2022-10-06T12:27:50.447Z,25.97
2022-10-06T12:28:50.194Z,25.94
2022-10-06T12:29:50.288Z,25.94
2022-10-06T12:30:50.218Z,25.98
2022-10-06T12:31:50.404Z,25.97
2022-10-06T12:32:50.204Z,25.95
2022-10-06T12:33:50.327Z,25.97
2022-10-06T12:34:50.150Z,25.97
2022-10-06T12:35:50.209Z,25.97
2022-10-06T12:36:50.068Z,25.98
2022-10-06T12:37:54.195Z,25.97
2022-10-06T12:38:50.145Z,25.97
2022-10-06T12:39:50.189Z,25.97
2022-10-06T12:40:50.038Z,25.95
2022-10-06T12:41:50.300Z,25.97
2022-10-06T12:42:49.999Z,25.97
2022-10-06T12:43:50.485Z,25.98
2022-10-06T12:44:49.995Z,25.97
2022-10-06T12:45:50.139Z,25.99
2022-10-06T12:46:49.954Z,25.99
2022-10-06T12:47:50.038Z,26.02
2022-10-06T12:48:49.906Z,26.01
2022-10-06T12:49:50.942Z,26.05
2022-10-06T12:50:49.920Z,26.02
2022-10-06T12:51:52.359Z,26.02
2022-10-06T12:52:49.882Z,26.02
2022-10-06T12:53:50.101Z,26.01
2022-10-06T12:54:49.819Z,25.99
2022-10-06T12:55:50.749Z,26.01